Longview, WA (98632)

3:28 PM PST on February 12, 2016 (GMT -0800)
Island Dr | | Change Station
CLOSE
Current Station
Personal Weather Station
Location: Longview, WA
Elevation: 10 ft
Nearby Weather Stations

Elev 10 ft 46.16 °N, 123.03 °W | Updated 16 seconds ago

Mostly Cloudy
Mostly Cloudy
56.7 °F
Feels Like 56.7 °F
N
0.0
Wind Variable Wind from NE
Gusts 0.0 mph

Today
High -- | Low -- °F
--% Chance of Precip.
Yesterday
High -- | Low -- °F
Precip. -- in
Pressure 30.19 in
Visibility 10.0 miles
Clouds Scattered Clouds 6000 ft
Mostly Cloudy 7500 ft
Mostly Cloudy 8000 ft
Dew Point 53 °F
Humidity 87%
Rainfall 0.20 in
Snow Depth Not available.
7:20 AM 5:33 PM
Waxing Crescent, 24% visible
METAR KKLS 122315Z AUTO 16009KT 10SM SCT060 BKN075 BKN080 14/10 A3019 RMK AO1
Pressure 30.19 in
Visibility 10.0 miles
Clouds Scattered Clouds 6000 ft
Mostly Cloudy 7500 ft
Mostly Cloudy 8000 ft
Dew Point 53 °F
Humidity 87%
Rainfall 0.20 in
Snow Depth Not available.
7:20 AM 5:33 PM
Waxing Crescent, 24% visible
METAR KKLS 122315Z AUTO 16009KT 10SM SCT060 BKN075 BKN080 14/10 A3019 RMK AO1

10-Day Weather Forecast

Almanac

Astronomy

Feb. 12, 2016 Rise Set
Actual Time
Civil Twilight
Nautical Twilight
Astronomical Twilight
Moon
Length of Visible Light
Length of Day
Tomorrow will be .
, % of the Moon is Illuminated

Today's Extremes

State Highs State Lows

Community

WunderPhotos

Upload Photos

1,892,436 photos uploaded!

WunderBlog® & News

Nearby

Air Quality

  Air Quality AQ Index Pollutant
Not available.

Snow Depth

Station Depth Elevation

Earthquake Activity

City Distance Mag. Time & Date
Minimum magnitude displayed is 2.5.

Coastal Water Temperatures

Place Temperature

Stations

Nearby Weather Stations

Station Location Temp. Windchill Dew Point Humidity Wind Precip. Elev Updated Type
                   

Watches & Warnings

There are currently no watches in effect.